createdAt,value
2023-01-19T00:00:39.074Z,5.38
2023-01-19T00:03:25.177Z,5.14
2023-01-19T00:05:52.011Z,5.46
2023-01-19T00:08:18.947Z,5.85
2023-01-19T00:10:50.529Z,6.11
2023-01-19T00:13:17.677Z,6.23
2023-01-19T00:15:44.595Z,6.35
2023-01-19T00:18:11.664Z,6.48
2023-01-19T00:20:39.807Z,6.55
2023-01-19T00:23:07.405Z,6.60
2023-01-19T00:25:34.622Z,6.59
2023-01-19T00:28:01.942Z,6.51
2023-01-19T00:30:29.563Z,6.44
2023-01-19T00:32:56.395Z,6.39
2023-01-19T00:35:23.122Z,6.35
2023-01-19T00:37:50.275Z,6.30
2023-01-19T00:40:17.731Z,6.29
2023-01-19T00:42:45.388Z,6.23
2023-01-19T00:45:21.907Z,6.19
2023-01-19T00:47:56.215Z,6.18
2023-01-19T00:50:24.839Z,6.18
2023-01-19T00:52:53.346Z,6.16
2023-01-19T00:55:20.318Z,6.14
2023-01-19T00:57:47.230Z,6.14
2023-01-19T01:00:16.943Z,6.18
2023-01-19T01:02:48.671Z,6.83
2023-01-19T01:05:16.192Z,7.13
2023-01-19T01:07:46.478Z,7.07
2023-01-19T01:10:19.576Z,6.96
2023-01-19T01:12:54.822Z,6.86
2023-01-19T01:15:29.308Z,6.87
2023-01-19T01:17:56.259Z,7.40
2023-01-19T01:20:29.671Z,7.98
2023-01-19T01:22:57.370Z,8.12
2023-01-19T01:25:26.433Z,7.44
2023-01-19T01:27:54.073Z,6.69
2023-01-19T01:30:21.416Z,6.10
2023-01-19T01:32:48.525Z,5.62
2023-01-19T01:35:15.743Z,5.46
2023-01-19T01:37:42.804Z,6.44
2023-01-19T01:40:15.258Z,7.59
2023-01-19T01:42:42.372Z,8.23
2023-01-19T01:45:27.672Z,8.35
2023-01-19T01:48:00.890Z,8.45
2023-01-19T01:50:31.361Z,7.69
2023-01-19T01:53:06.512Z,6.90
2023-01-19T01:55:40.809Z,6.29
2023-01-19T01:58:09.954Z,5.85
2023-01-19T02:00:57.253Z,5.46
2023-01-19T02:03:25.584Z,5.10
2023-01-19T02:05:58.582Z,5.08
2023-01-19T02:08:53.740Z,6.14
2023-01-19T02:11:39.844Z,7.34
2023-01-19T02:14:06.994Z,8.09
2023-01-19T02:16:35.720Z,8.26
2023-01-19T02:19:08.155Z,7.60
2023-01-19T02:21:48.620Z,6.88
2023-01-19T02:24:15.655Z,6.28
2023-01-19T02:26:46.273Z,5.86
2023-01-19T02:29:15.828Z,5.50
2023-01-19T02:31:43.110Z,5.20
2023-01-19T02:34:12.346Z,5.10
2023-01-19T02:36:41.568Z,5.92
2023-01-19T02:39:10.578Z,7.06
2023-01-19T02:41:45.702Z,7.87
2023-01-19T02:44:14.673Z,8.18
2023-01-19T02:46:41.636Z,7.52
2023-01-19T02:49:08.432Z,6.73
2023-01-19T02:51:35.708Z,6.12
2023-01-19T02:54:11.676Z,5.64
2023-01-19T02:56:45.789Z,5.23
2023-01-19T02:59:32.893Z,4.88
2023-01-19T03:02:14.076Z,4.58
2023-01-19T03:04:53.002Z,4.61
2023-01-19T03:07:35.014Z,5.60
2023-01-19T03:10:20.069Z,6.50
2023-01-19T03:12:54.172Z,7.16
2023-01-19T03:15:40.502Z,7.58
2023-01-19T03:18:10.411Z,6.92
2023-01-19T03:20:39.587Z,6.21
2023-01-19T03:23:09.915Z,5.67
2023-01-19T03:25:42.152Z,5.26
2023-01-19T03:28:09.576Z,4.94
2023-01-19T03:30:41.825Z,4.67
2023-01-19T03:33:16.323Z,4.67
2023-01-19T03:35:48.684Z,5.74
2023-01-19T03:38:19.048Z,6.82
2023-01-19T03:40:47.015Z,7.45
2023-01-19T03:43:16.052Z,7.82
2023-01-19T03:45:43.750Z,7.26
2023-01-19T03:48:10.932Z,6.54
2023-01-19T03:50:37.844Z,5.99
2023-01-19T03:53:12.522Z,5.56
2023-01-19T03:55:42.896Z,5.21
2023-01-19T03:58:09.592Z,4.91
2023-01-19T04:00:37.300Z,4.66
2023-01-19T04:03:05.410Z,4.43
2023-01-19T04:05:32.581Z,4.24
2023-01-19T04:08:00.180Z,4.27
2023-01-19T04:10:27.259Z,5.29
2023-01-19T04:12:58.385Z,6.32
2023-01-19T04:15:25.724Z,6.86
2023-01-19T04:17:52.973Z,7.01
2023-01-19T04:20:21.049Z,6.50
2023-01-19T04:22:49.059Z,5.87
2023-01-19T04:25:15.970Z,5.38
2023-01-19T04:27:42.802Z,5.00
2023-01-19T04:30:10.387Z,4.69
2023-01-19T04:32:37.056Z,4.43
2023-01-19T04:35:04.331Z,4.21
2023-01-19T04:37:30.971Z,4.19
2023-01-19T04:39:57.602Z,5.29
2023-01-19T04:42:24.249Z,6.49
2023-01-19T04:44:52.031Z,7.34
2023-01-19T04:47:19.135Z,7.74
2023-01-19T04:49:45.775Z,7.15
2023-01-19T04:52:12.557Z,6.39
2023-01-19T04:54:39.396Z,5.78
2023-01-19T04:57:06.140Z,5.31
2023-01-19T04:59:33.135Z,4.94
2023-01-19T05:02:00.083Z,4.65
2023-01-19T05:04:27.091Z,4.39
2023-01-19T05:06:53.925Z,4.18
2023-01-19T05:09:20.821Z,3.97
2023-01-19T05:11:47.480Z,4.01
2023-01-19T05:14:14.089Z,5.09
2023-01-19T05:16:41.431Z,6.25
2023-01-19T05:19:08.445Z,6.90
2023-01-19T05:21:35.207Z,6.45
2023-01-19T05:24:02.429Z,5.78
2023-01-19T05:26:29.081Z,5.25
2023-01-19T05:28:56.143Z,4.82
2023-01-19T05:31:22.995Z,4.50
2023-01-19T05:33:49.901Z,4.22
2023-01-19T05:36:16.780Z,3.98
2023-01-19T05:38:43.514Z,3.76
2023-01-19T05:41:10.224Z,3.58
2023-01-19T05:43:37.421Z,3.60
2023-01-19T05:46:04.937Z,4.61
2023-01-19T05:48:32.010Z,5.74
2023-01-19T05:50:59.847Z,6.53
2023-01-19T05:53:28.018Z,6.77
2023-01-19T05:56:07.111Z,6.24
2023-01-19T05:58:35.263Z,5.55
2023-01-19T06:01:04.920Z,5.05
2023-01-19T06:03:33.456Z,4.66
2023-01-19T06:06:00.600Z,4.36
2023-01-19T06:08:27.587Z,4.11
2023-01-19T06:10:54.297Z,3.89
2023-01-19T06:13:21.109Z,3.69
2023-01-19T06:15:48.003Z,3.66
2023-01-19T06:18:14.742Z,4.38
2023-01-19T06:20:41.620Z,5.38
2023-01-19T06:23:09.955Z,6.19
2023-01-19T06:25:36.944Z,6.55
2023-01-19T06:28:03.883Z,6.00
2023-01-19T06:30:30.702Z,5.35
2023-01-19T06:32:57.613Z,4.85
2023-01-19T06:35:24.612Z,4.46
2023-01-19T06:37:52.478Z,4.15
2023-01-19T06:40:19.733Z,3.89
2023-01-19T06:42:48.213Z,3.67
2023-01-19T06:45:14.978Z,3.48
2023-01-19T06:47:41.997Z,3.47
2023-01-19T06:50:09.457Z,4.33
2023-01-19T06:52:41.676Z,5.42
2023-01-19T06:55:12.235Z,6.08
2023-01-19T06:57:39.747Z,6.13
2023-01-19T07:00:08.498Z,5.62
2023-01-19T07:02:36.377Z,5.09
2023-01-19T07:05:06.045Z,4.66
2023-01-19T07:07:32.827Z,4.34
2023-01-19T07:09:59.493Z,4.09
2023-01-19T07:12:26.513Z,3.87
2023-01-19T07:14:53.355Z,3.69
2023-01-19T07:17:20.193Z,3.53
2023-01-19T07:19:47.136Z,3.51
2023-01-19T07:22:14.147Z,4.12
2023-01-19T07:24:41.144Z,5.02
2023-01-19T07:27:08.093Z,5.77
2023-01-19T07:29:34.814Z,6.12
2023-01-19T07:32:01.734Z,6.27
2023-01-19T07:34:28.804Z,5.84
2023-01-19T07:36:56.156Z,5.29
2023-01-19T07:39:22.808Z,4.86
2023-01-19T07:41:49.388Z,4.53
2023-01-19T07:44:16.186Z,4.28
2023-01-19T07:46:43.178Z,4.08
2023-01-19T07:49:10.924Z,3.89
2023-01-19T07:51:37.621Z,3.74
2023-01-19T07:54:04.280Z,3.60
2023-01-19T07:56:33.652Z,3.47
2023-01-19T07:59:00.708Z,3.47
2023-01-19T08:01:29.068Z,4.13
2023-01-19T08:03:56.347Z,5.34
2023-01-19T08:06:26.589Z,6.20
2023-01-19T08:08:53.532Z,6.88
2023-01-19T08:11:20.861Z,6.90
2023-01-19T08:13:47.600Z,6.31
2023-01-19T08:16:14.439Z,5.64
2023-01-19T08:18:41.926Z,5.11
2023-01-19T08:21:08.737Z,4.73
2023-01-19T08:23:35.584Z,4.42
2023-01-19T08:26:37.340Z,4.19
2023-01-19T08:29:06.330Z,3.97
2023-01-19T08:31:33.615Z,3.81
2023-01-19T08:34:01.784Z,3.66
2023-01-19T08:36:29.014Z,3.54
2023-01-19T08:38:55.839Z,3.44
2023-01-19T08:41:22.578Z,3.34
2023-01-19T08:43:49.636Z,3.41
2023-01-19T08:46:16.915Z,4.44
2023-01-19T08:48:50.168Z,5.70
2023-01-19T08:51:17.546Z,6.72
2023-01-19T08:53:44.696Z,7.21
2023-01-19T08:56:13.412Z,6.71
2023-01-19T08:58:42.573Z,6.03
2023-01-19T09:01:10.353Z,5.51
2023-01-19T09:03:37.197Z,5.11
2023-01-19T09:06:07.555Z,4.77
2023-01-19T09:08:34.492Z,4.49
2023-01-19T09:11:01.974Z,4.29
2023-01-19T09:13:28.747Z,4.14
2023-01-19T09:15:55.451Z,4.00
2023-01-19T09:18:22.446Z,3.87
2023-01-19T09:20:49.988Z,3.74
2023-01-19T09:23:19.605Z,3.65
2023-01-19T09:25:47.570Z,3.75
2023-01-19T09:28:16.952Z,4.81
2023-01-19T09:30:44.719Z,5.92
2023-01-19T09:33:14.751Z,6.79
2023-01-19T09:35:42.673Z,7.27
2023-01-19T09:38:10.072Z,6.84
2023-01-19T09:40:43.172Z,6.24
2023-01-19T09:43:31.805Z,5.80
2023-01-19T09:46:02.137Z,5.39
2023-01-19T09:49:07.929Z,5.14
2023-01-19T09:51:39.084Z,4.88
2023-01-19T09:54:13.871Z,4.72
2023-01-19T09:56:41.935Z,4.60
2023-01-19T09:59:29.697Z,4.53
2023-01-19T10:02:12.722Z,4.47
2023-01-19T10:04:51.011Z,4.44
2023-01-19T10:07:40.781Z,4.42
2023-01-19T10:10:20.287Z,4.42
2023-01-19T10:12:59.800Z,4.44
2023-01-19T10:15:40.429Z,4.44
2023-01-19T10:18:12.610Z,4.46
2023-01-19T10:20:59.281Z,4.50
2023-01-19T10:23:34.512Z,4.52
2023-01-19T10:26:09.882Z,4.52
2023-01-19T10:28:38.360Z,4.58
2023-01-19T10:31:07.085Z,4.65
2023-01-19T10:33:34.707Z,4.73
2023-01-19T10:36:29.468Z,4.82
2023-01-19T10:38:57.374Z,4.94
2023-01-19T10:41:30.015Z,5.06
2023-01-19T10:44:04.770Z,5.19
2023-01-19T10:46:43.073Z,5.32
2023-01-19T10:49:38.431Z,5.45
2023-01-19T10:52:28.815Z,5.61
2023-01-19T10:54:56.143Z,5.76
2023-01-19T10:57:34.189Z,5.89
2023-01-19T11:00:01.576Z,6.03
2023-01-19T11:02:30.775Z,6.17
2023-01-19T11:05:20.589Z,6.29
2023-01-19T11:07:47.709Z,6.43
2023-01-19T11:10:20.170Z,6.56
2023-01-19T11:13:12.153Z,6.68
2023-01-19T11:16:03.618Z,6.80
2023-01-19T11:18:34.102Z,6.95
2023-01-19T11:21:06.323Z,7.06
2023-01-19T11:23:41.492Z,7.14
2023-01-19T11:26:15.631Z,7.22
2023-01-19T11:28:47.357Z,7.31
2023-01-19T11:31:14.181Z,7.38
2023-01-19T11:33:47.685Z,7.46
2023-01-19T11:36:20.586Z,7.56
2023-01-19T11:38:50.058Z,7.67
2023-01-19T11:41:46.123Z,7.77
2023-01-19T11:44:21.364Z,7.90
2023-01-19T11:46:59.451Z,8.04
2023-01-19T11:49:43.760Z,8.12
2023-01-19T11:52:22.953Z,8.21
2023-01-19T11:55:30.764Z,8.30
2023-01-19T11:57:58.525Z,8.43
2023-01-19T12:00:37.043Z,8.53
2023-01-19T12:03:21.154Z,8.67
2023-01-19T12:05:54.691Z,8.80
2023-01-19T12:08:26.745Z,8.90
2023-01-19T12:10:56.897Z,8.86
2023-01-19T12:13:25.861Z,8.71
2023-01-19T12:16:09.944Z,8.71
2023-01-19T12:18:43.262Z,8.75
2023-01-19T12:21:10.255Z,8.79
2023-01-19T12:23:48.758Z,8.85
2023-01-19T12:26:15.702Z,8.92
2023-01-19T12:28:46.749Z,8.99
2023-01-19T12:31:19.287Z,9.06
2023-01-19T12:33:46.781Z,8.98
2023-01-19T12:36:16.730Z,8.78
2023-01-19T12:38:52.294Z,8.61
2023-01-19T12:41:29.043Z,8.47
2023-01-19T12:44:11.300Z,8.48
2023-01-19T12:46:45.398Z,8.59
2023-01-19T12:49:33.058Z,8.72
2023-01-19T12:52:17.001Z,8.83
2023-01-19T12:54:49.785Z,8.88
2023-01-19T12:57:25.928Z,9.01
2023-01-19T13:00:02.968Z,9.08
2023-01-19T13:02:42.633Z,8.99
2023-01-19T13:05:11.665Z,8.96
2023-01-19T13:08:10.868Z,8.88
2023-01-19T13:11:12.650Z,8.72
2023-01-19T13:13:41.578Z,8.66
2023-01-19T13:16:21.670Z,8.69
2023-01-19T13:19:05.715Z,8.73
2023-01-19T13:21:45.075Z,8.80
2023-01-19T13:24:17.229Z,8.80
2023-01-19T13:26:50.126Z,8.91
2023-01-19T13:29:39.771Z,9.11
2023-01-19T13:32:18.947Z,9.39
2023-01-19T13:34:51.187Z,9.65
2023-01-19T13:37:21.462Z,9.94
2023-01-19T13:39:52.555Z,10.42
2023-01-19T13:42:38.200Z,10.98
2023-01-19T13:45:25.859Z,11.48
2023-01-19T13:47:55.156Z,11.82
2023-01-19T13:50:26.336Z,11.98
2023-01-19T13:52:55.091Z,12.09
2023-01-19T13:55:23.210Z,12.08
2023-01-19T13:57:51.068Z,12.04
2023-01-19T14:00:19.833Z,11.91
2023-01-19T14:03:12.592Z,11.73
2023-01-19T14:05:41.652Z,11.47
2023-01-19T14:08:10.669Z,11.18
2023-01-19T14:10:46.649Z,10.85
2023-01-19T14:13:16.803Z,10.53
2023-01-19T14:15:44.876Z,10.19
2023-01-19T14:18:17.584Z,9.76
2023-01-19T14:21:07.482Z,9.34
2023-01-19T14:23:54.890Z,8.94
2023-01-19T14:26:55.829Z,8.55
2023-01-19T14:29:29.545Z,8.12
2023-01-19T14:32:11.122Z,7.84
2023-01-19T14:34:45.761Z,7.57
2023-01-19T14:37:26.310Z,7.34
2023-01-19T14:40:10.562Z,7.10
2023-01-19T14:42:46.003Z,6.88
2023-01-19T14:45:37.642Z,6.66
2023-01-19T14:48:11.739Z,6.45
2023-01-19T14:50:42.829Z,6.23
2023-01-19T14:53:16.623Z,6.00
2023-01-19T14:55:51.887Z,5.79
2023-01-19T14:58:21.047Z,5.56
2023-01-19T15:00:49.179Z,5.41
2023-01-19T15:03:16.347Z,5.29
2023-01-19T15:05:45.954Z,5.17
2023-01-19T15:08:18.558Z,5.08
2023-01-19T15:10:45.887Z,4.96
2023-01-19T15:13:20.117Z,4.87
2023-01-19T15:15:49.156Z,4.77
2023-01-19T15:18:20.411Z,4.69
2023-01-19T15:20:47.183Z,4.58
2023-01-19T15:23:13.918Z,4.51
2023-01-19T15:25:40.689Z,4.48
2023-01-19T15:28:18.794Z,4.44
2023-01-19T15:30:45.820Z,4.40
2023-01-19T15:33:24.162Z,4.37
2023-01-19T15:35:52.305Z,4.29
2023-01-19T15:38:19.306Z,4.20
2023-01-19T15:40:51.163Z,4.13
2023-01-19T15:43:18.703Z,4.06
2023-01-19T15:46:00.366Z,4.10
2023-01-19T15:48:27.250Z,4.72
2023-01-19T15:50:54.248Z,5.89
2023-01-19T15:53:23.552Z,7.24
2023-01-19T15:55:52.292Z,7.94
2023-01-19T15:58:20.385Z,8.08
2023-01-19T16:00:55.649Z,7.58
2023-01-19T16:03:23.727Z,6.86
2023-01-19T16:05:50.834Z,6.33
2023-01-19T16:08:17.807Z,5.91
2023-01-19T16:10:44.677Z,5.55
2023-01-19T16:13:11.773Z,5.21
2023-01-19T16:15:39.674Z,4.90
2023-01-19T16:18:06.554Z,4.64
2023-01-19T16:20:33.872Z,4.44
2023-01-19T16:23:14.570Z,4.59
2023-01-19T16:25:42.821Z,5.98
2023-01-19T16:28:09.908Z,7.08
2023-01-19T16:30:36.613Z,7.97
2023-01-19T16:33:04.766Z,8.71
2023-01-19T16:35:31.708Z,9.04
2023-01-19T16:37:58.401Z,8.28
2023-01-19T16:40:25.562Z,7.40
2023-01-19T16:42:52.200Z,6.70
2023-01-19T16:45:18.877Z,6.14
2023-01-19T16:47:49.800Z,5.70
2023-01-19T16:50:16.668Z,5.34
2023-01-19T16:52:44.425Z,5.02
2023-01-19T16:55:11.665Z,4.79
2023-01-19T16:57:39.139Z,4.63
2023-01-19T17:00:08.705Z,4.74
2023-01-19T17:02:36.069Z,6.31
2023-01-19T17:05:03.448Z,7.72
2023-01-19T17:07:30.139Z,8.55
2023-01-19T17:09:56.934Z,9.10
2023-01-19T17:12:23.821Z,8.46
2023-01-19T17:14:50.621Z,7.52
2023-01-19T17:17:17.484Z,6.71
2023-01-19T17:19:44.807Z,6.02
2023-01-19T17:22:12.809Z,5.50
2023-01-19T17:24:42.022Z,5.07
2023-01-19T17:27:09.259Z,4.72
2023-01-19T17:29:36.394Z,4.82
2023-01-19T17:32:03.826Z,6.39
2023-01-19T17:34:30.629Z,7.84
2023-01-19T17:37:02.238Z,8.82
2023-01-19T17:39:29.504Z,9.23
2023-01-19T17:41:56.635Z,8.51
2023-01-19T17:44:23.575Z,7.58
2023-01-19T17:46:50.618Z,6.88
2023-01-19T17:49:17.546Z,6.35
2023-01-19T17:51:44.930Z,5.93
2023-01-19T17:54:13.500Z,5.60
2023-01-19T17:56:40.827Z,5.30
2023-01-19T17:59:07.943Z,5.05
2023-01-19T18:01:40.035Z,5.15
2023-01-19T18:04:08.344Z,6.70
2023-01-19T18:06:36.339Z,8.14
2023-01-19T18:09:04.496Z,9.07
2023-01-19T18:11:31.843Z,9.49
2023-01-19T18:14:00.162Z,8.81
2023-01-19T18:16:28.816Z,7.94
2023-01-19T18:18:56.532Z,7.27
2023-01-19T18:21:26.720Z,6.78
2023-01-19T18:24:00.797Z,6.39
2023-01-19T18:26:29.087Z,6.05
2023-01-19T18:28:56.739Z,5.78
2023-01-19T18:31:25.061Z,5.54
2023-01-19T18:33:52.072Z,5.33
2023-01-19T18:36:19.925Z,5.14
2023-01-19T18:38:47.305Z,5.28
2023-01-19T18:41:17.231Z,6.68
2023-01-19T18:43:44.963Z,8.03
2023-01-19T18:46:12.972Z,9.07
2023-01-19T18:48:40.093Z,9.39
2023-01-19T18:51:08.874Z,8.68
2023-01-19T18:53:36.736Z,7.86
2023-01-19T18:56:04.195Z,7.25
2023-01-19T18:58:32.544Z,6.79
2023-01-19T19:01:00.679Z,6.43
2023-01-19T19:03:28.414Z,6.10
2023-01-19T19:05:56.061Z,5.83
2023-01-19T19:08:23.018Z,5.59
2023-01-19T19:10:49.783Z,5.35
2023-01-19T19:13:17.244Z,5.37
2023-01-19T19:15:44.367Z,6.41
2023-01-19T19:18:13.274Z,7.41
2023-01-19T19:20:42.433Z,8.20
2023-01-19T19:23:11.102Z,8.37
2023-01-19T19:25:38.231Z,7.77
2023-01-19T19:28:05.332Z,7.13
2023-01-19T19:30:34.032Z,6.64
2023-01-19T19:33:00.888Z,6.25
2023-01-19T19:35:37.728Z,5.95
2023-01-19T19:38:04.691Z,5.68
2023-01-19T19:40:31.731Z,5.46
2023-01-19T19:42:58.946Z,5.49
2023-01-19T19:45:26.365Z,6.65
2023-01-19T19:47:53.443Z,7.85
2023-01-19T19:50:20.167Z,8.69
2023-01-19T19:52:46.965Z,9.08
2023-01-19T19:55:13.752Z,8.45
2023-01-19T19:57:40.963Z,7.66
2023-01-19T20:00:08.517Z,7.04
2023-01-19T20:02:38.077Z,6.55
2023-01-19T20:05:05.681Z,6.15
2023-01-19T20:07:32.925Z,5.83
2023-01-19T20:09:59.900Z,5.82
2023-01-19T20:12:30.495Z,6.93
2023-01-19T20:15:20.696Z,8.11
2023-01-19T20:17:47.839Z,8.93
2023-01-19T20:20:15.231Z,9.26
2023-01-19T20:23:06.627Z,8.49
2023-01-19T20:25:38.481Z,7.70
2023-01-19T20:28:05.831Z,7.10
2023-01-19T20:30:32.887Z,6.62
2023-01-19T20:33:00.101Z,6.23
2023-01-19T20:35:28.117Z,5.87
2023-01-19T20:37:55.144Z,5.59
2023-01-19T20:40:40.832Z,5.65
2023-01-19T20:43:08.387Z,6.91
2023-01-19T20:45:35.357Z,7.96
2023-01-19T20:48:02.346Z,8.64
2023-01-19T20:50:29.324Z,9.00
2023-01-19T20:52:55.996Z,8.36
2023-01-19T20:55:22.784Z,7.56
2023-01-19T20:57:49.750Z,6.92
2023-01-19T21:00:17.011Z,6.43
2023-01-19T21:02:48.736Z,6.03
2023-01-19T21:05:17.421Z,5.67
2023-01-19T21:07:44.817Z,5.36
2023-01-19T21:10:11.641Z,5.34
2023-01-19T21:12:57.120Z,6.54
2023-01-19T21:15:24.003Z,7.72
2023-01-19T21:17:51.011Z,8.54
2023-01-19T21:20:18.802Z,8.95
2023-01-19T21:22:46.232Z,8.31
2023-01-19T21:25:32.020Z,7.43
2023-01-19T21:27:59.091Z,6.77
2023-01-19T21:30:26.158Z,6.26
2023-01-19T21:32:54.389Z,5.84
2023-01-19T21:35:21.353Z,5.47
2023-01-19T21:37:48.169Z,5.17
2023-01-19T21:40:15.103Z,5.15
2023-01-19T21:42:41.870Z,6.25
2023-01-19T21:45:09.133Z,7.47
2023-01-19T21:47:36.428Z,8.30
2023-01-19T21:50:04.203Z,8.63
2023-01-19T21:52:30.970Z,8.01
2023-01-19T21:54:58.012Z,7.22
2023-01-19T21:57:24.719Z,6.55
2023-01-19T21:59:51.600Z,6.03
2023-01-19T22:02:33.359Z,5.62
2023-01-19T22:05:10.061Z,5.20
2023-01-19T22:07:37.210Z,4.89
2023-01-19T22:10:05.184Z,4.84
2023-01-19T22:12:32.128Z,5.87
2023-01-19T22:15:01.780Z,6.96
2023-01-19T22:17:28.446Z,7.78
2023-01-19T22:19:55.417Z,8.17
2023-01-19T22:22:22.533Z,7.56
2023-01-19T22:24:50.133Z,6.76
2023-01-19T22:27:17.277Z,6.13
2023-01-19T22:29:44.169Z,5.65
2023-01-19T22:32:10.844Z,5.27
2023-01-19T22:34:37.496Z,4.94
2023-01-19T22:37:05.766Z,4.65
2023-01-19T22:39:33.951Z,4.63
2023-01-19T22:42:00.694Z,5.75
2023-01-19T22:44:27.450Z,6.87
2023-01-19T22:46:55.293Z,7.63
2023-01-19T22:49:22.351Z,7.84
2023-01-19T22:52:12.755Z,6.99
2023-01-19T22:54:39.405Z,6.17
2023-01-19T22:57:07.582Z,5.55
2023-01-19T22:59:34.493Z,5.09
2023-01-19T23:02:01.400Z,4.72
2023-01-19T23:04:28.281Z,4.42
2023-01-19T23:07:13.862Z,4.15
2023-01-19T23:09:40.597Z,3.95
2023-01-19T23:12:07.337Z,3.98
2023-01-19T23:14:35.614Z,5.03
2023-01-19T23:17:20.823Z,6.29
2023-01-19T23:19:47.488Z,7.05
2023-01-19T23:22:32.936Z,7.44
2023-01-19T23:24:59.953Z,6.84
2023-01-19T23:27:26.793Z,6.13
2023-01-19T23:29:53.492Z,5.59
2023-01-19T23:32:20.318Z,5.16
2023-01-19T23:34:47.321Z,4.82
2023-01-19T23:37:16.007Z,4.53
2023-01-19T23:40:01.585Z,4.25
2023-01-19T23:42:28.636Z,4.01
2023-01-19T23:45:14.304Z,3.78
2023-01-19T23:47:42.571Z,3.79
2023-01-19T23:50:10.111Z,4.75
2023-01-19T23:52:37.192Z,5.86
2023-01-19T23:55:04.888Z,6.64
2023-01-19T23:57:31.486Z,7.05
2023-01-19T23:59:58.241Z,6.51
